sensor_id;sensor_type;location;lat;lon;timestamp;temperature;humidity
5494;DHT22;2769;49.864;8.656;2022-12-18T00:00:05;-3.80;99.90
5494;DHT22;2769;49.864;8.656;2022-12-18T00:02:40;-3.90;99.90
5494;DHT22;2769;49.864;8.656;2022-12-18T00:05:09;-4.00;99.90
5494;DHT22;2769;49.864;8.656;2022-12-18T00:07:37;-3.80;99.90
5494;DHT22;2769;49.864;8.656;2022-12-18T00:10:06;-4.20;99.90
5494;DHT22;2769;49.864;8.656;2022-12-18T00:12:35;-4.10;99.90
5494;DHT22;2769;49.864;8.656;2022-12-18T00:15:04;-3.90;99.90
5494;DHT22;2769;49.864;8.656;2022-12-18T00:17:32;-3.60;99.90
5494;DHT22;2769;49.864;8.656;2022-12-18T00:20:02;-3.80;99.90
5494;DHT22;2769;49.864;8.656;2022-12-18T00:22:30;-3.80;99.90
5494;DHT22;2769;49.864;8.656;2022-12-18T00:24:58;-3.70;99.90
5494;DHT22;2769;49.864;8.656;2022-12-18T00:27:27;-3.70;99.90
5494;DHT22;2769;49.864;8.656;2022-12-18T00:29:55;-3.70;99.90
5494;DHT22;2769;49.864;8.656;2022-12-18T00:32:24;-3.70;99.90
5494;DHT22;2769;49.864;8.656;2022-12-18T00:34:52;-3.60;99.90
5494;DHT22;2769;49.864;8.656;2022-12-18T00:37:21;-3.70;99.90
5494;DHT22;2769;49.864;8.656;2022-12-18T00:39:50;-3.60;99.90
5494;DHT22;2769;49.864;8.656;2022-12-18T00:42:19;-3.40;99.90
5494;DHT22;2769;49.864;8.656;2022-12-18T00:45:06;-3.50;99.90
5494;DHT22;2769;49.864;8.656;2022-12-18T00:47:39;-3.50;99.90
5494;DHT22;2769;49.864;8.656;2022-12-18T00:50:08;-3.60;99.90
5494;DHT22;2769;49.864;8.656;2022-12-18T00:52:41;-3.20;99.90
5494;DHT22;2769;49.864;8.656;2022-12-18T00:55:10;-3.40;99.90
5494;DHT22;2769;49.864;8.656;2022-12-18T00:57:38;-3.60;99.90
5494;DHT22;2769;49.864;8.656;2022-12-18T01:00:10;-3.40;99.90
5494;DHT22;2769;49.864;8.656;2022-12-18T01:02:39;-3.60;99.90
5494;DHT22;2769;49.864;8.656;2022-12-18T01:05:08;-3.70;99.90
5494;DHT22;2769;49.864;8.656;2022-12-18T01:07:37;-3.70;99.90
5494;DHT22;2769;49.864;8.656;2022-12-18T01:10:09;-3.80;99.90
5494;DHT22;2769;49.864;8.656;2022-12-18T01:12:39;-3.70;99.90
5494;DHT22;2769;49.864;8.656;2022-12-18T01:15:09;-3.70;99.90
5494;DHT22;2769;49.864;8.656;2022-12-18T01:17:37;-3.70;99.90
5494;DHT22;2769;49.864;8.656;2022-12-18T01:20:07;-3.90;99.90
5494;DHT22;2769;49.864;8.656;2022-12-18T01:22:35;-4.00;99.90
5494;DHT22;2769;49.864;8.656;2022-12-18T01:25:08;-3.90;99.90
5494;DHT22;2769;49.864;8.656;2022-12-18T01:27:36;-3.80;99.90
5494;DHT22;2769;49.864;8.656;2022-12-18T01:30:05;-3.80;99.90
5494;DHT22;2769;49.864;8.656;2022-12-18T01:32:33;-3.60;99.90
5494;DHT22;2769;49.864;8.656;2022-12-18T01:35:02;-3.50;99.90
5494;DHT22;2769;49.864;8.656;2022-12-18T01:37:30;-3.60;99.90
5494;DHT22;2769;49.864;8.656;2022-12-18T01:39:58;-3.80;99.90
5494;DHT22;2769;49.864;8.656;2022-12-18T01:42:31;-3.80;99.90
5494;DHT22;2769;49.864;8.656;2022-12-18T01:45:05;-3.90;99.90
5494;DHT22;2769;49.864;8.656;2022-12-18T01:47:36;-3.90;99.90
5494;DHT22;2769;49.864;8.656;2022-12-18T01:50:09;-3.80;99.90
5494;DHT22;2769;49.864;8.656;2022-12-18T01:52:38;-4.10;99.90
5494;DHT22;2769;49.864;8.656;2022-12-18T01:55:10;-4.20;99.90
5494;DHT22;2769;49.864;8.656;2022-12-18T01:57:40;-4.20;99.90
5494;DHT22;2769;49.864;8.656;2022-12-18T02:00:11;-4.20;99.90
5494;DHT22;2769;49.864;8.656;2022-12-18T02:02:40;-4.30;99.90
5494;DHT22;2769;49.864;8.656;2022-12-18T02:05:10;-4.20;99.90
5494;DHT22;2769;49.864;8.656;2022-12-18T02:07:45;-4.00;99.90
5494;DHT22;2769;49.864;8.656;2022-12-18T02:10:24;-4.00;99.90
5494;DHT22;2769;49.864;8.656;2022-12-18T02:13:04;-3.90;99.90
5494;DHT22;2769;49.864;8.656;2022-12-18T02:15:38;-3.80;99.90
5494;DHT22;2769;49.864;8.656;2022-12-18T02:18:10;-4.00;99.90
5494;DHT22;2769;49.864;8.656;2022-12-18T02:20:44;-3.90;99.90
5494;DHT22;2769;49.864;8.656;2022-12-18T02:23:24;-4.00;99.90
5494;DHT22;2769;49.864;8.656;2022-12-18T02:26:16;-3.80;99.90
5494;DHT22;2769;49.864;8.656;2022-12-18T02:28:52;-3.90;99.90
5494;DHT22;2769;49.864;8.656;2022-12-18T02:31:26;-3.80;99.90
5494;DHT22;2769;49.864;8.656;2022-12-18T02:33:57;-3.80;99.90
5494;DHT22;2769;49.864;8.656;2022-12-18T02:36:28;-3.90;99.90
5494;DHT22;2769;49.864;8.656;2022-12-18T02:38:58;-3.70;99.90
5494;DHT22;2769;49.864;8.656;2022-12-18T02:41:30;-3.80;99.90
5494;DHT22;2769;49.864;8.656;2022-12-18T02:44:02;-3.50;99.90
5494;DHT22;2769;49.864;8.656;2022-12-18T02:46:36;-3.70;99.90
5494;DHT22;2769;49.864;8.656;2022-12-18T02:49:26;-3.60;99.90
5494;DHT22;2769;49.864;8.656;2022-12-18T02:52:07;-3.70;99.90
5494;DHT22;2769;49.864;8.656;2022-12-18T02:54:47;-3.80;99.90
5494;DHT22;2769;49.864;8.656;2022-12-18T02:57:24;-3.60;99.90
5494;DHT22;2769;49.864;8.656;2022-12-18T03:00:00;-3.60;99.90
5494;DHT22;2769;49.864;8.656;2022-12-18T03:02:35;-3.70;99.90
5494;DHT22;2769;49.864;8.656;2022-12-18T03:05:08;-3.60;99.90
5494;DHT22;2769;49.864;8.656;2022-12-18T03:07:43;-3.60;99.90
5494;DHT22;2769;49.864;8.656;2022-12-18T03:10:16;-3.80;99.90
5494;DHT22;2769;49.864;8.656;2022-12-18T03:12:52;-3.60;99.90
5494;DHT22;2769;49.864;8.656;2022-12-18T03:15:24;-4.00;99.90
5494;DHT22;2769;49.864;8.656;2022-12-18T03:18:07;-3.90;99.90
5494;DHT22;2769;49.864;8.656;2022-12-18T03:20:37;-4.20;99.90
5494;DHT22;2769;49.864;8.656;2022-12-18T03:23:09;-4.20;99.90
5494;DHT22;2769;49.864;8.656;2022-12-18T03:25:41;-4.30;99.90
5494;DHT22;2769;49.864;8.656;2022-12-18T03:28:14;-4.40;99.90
5494;DHT22;2769;49.864;8.656;2022-12-18T03:30:44;-4.50;99.90
5494;DHT22;2769;49.864;8.656;2022-12-18T03:33:17;-4.60;99.90
5494;DHT22;2769;49.864;8.656;2022-12-18T03:35:49;-4.80;99.90
5494;DHT22;2769;49.864;8.656;2022-12-18T03:38:18;-4.80;99.90
5494;DHT22;2769;49.864;8.656;2022-12-18T03:40:58;-4.80;99.90
5494;DHT22;2769;49.864;8.656;2022-12-18T03:43:37;-5.00;99.90
5494;DHT22;2769;49.864;8.656;2022-12-18T03:46:15;-4.90;99.90
5494;DHT22;2769;49.864;8.656;2022-12-18T03:48:48;-4.80;99.90
5494;DHT22;2769;49.864;8.656;2022-12-18T03:51:26;-4.80;99.90
5494;DHT22;2769;49.864;8.656;2022-12-18T03:53:59;-5.00;99.90
5494;DHT22;2769;49.864;8.656;2022-12-18T03:56:38;-5.00;99.90
5494;DHT22;2769;49.864;8.656;2022-12-18T03:59:12;-4.90;99.90
5494;DHT22;2769;49.864;8.656;2022-12-18T04:01:45;-4.80;99.90
5494;DHT22;2769;49.864;8.656;2022-12-18T04:04:16;-4.80;99.90
5494;DHT22;2769;49.864;8.656;2022-12-18T04:06:47;-4.80;99.90
5494;DHT22;2769;49.864;8.656;2022-12-18T04:09:18;-4.80;99.90
5494;DHT22;2769;49.864;8.656;2022-12-18T04:11:48;-4.60;99.90
5494;DHT22;2769;49.864;8.656;2022-12-18T04:14:17;-4.70;99.90
5494;DHT22;2769;49.864;8.656;2022-12-18T04:16:50;-4.50;99.90
5494;DHT22;2769;49.864;8.656;2022-12-18T04:19:23;-4.50;99.90
5494;DHT22;2769;49.864;8.656;2022-12-18T04:21:52;-4.50;99.90
5494;DHT22;2769;49.864;8.656;2022-12-18T04:24:21;-4.60;99.90
5494;DHT22;2769;49.864;8.656;2022-12-18T04:27:01;-4.70;99.90
5494;DHT22;2769;49.864;8.656;2022-12-18T04:29:34;-4.70;99.90
5494;DHT22;2769;49.864;8.656;2022-12-18T04:32:03;-4.80;99.90
5494;DHT22;2769;49.864;8.656;2022-12-18T04:34:32;-5.00;99.90
5494;DHT22;2769;49.864;8.656;2022-12-18T04:37:00;-4.80;99.90
5494;DHT22;2769;49.864;8.656;2022-12-18T04:39:29;-4.60;99.90
5494;DHT22;2769;49.864;8.656;2022-12-18T04:42:03;-4.60;99.90
5494;DHT22;2769;49.864;8.656;2022-12-18T04:44:31;-4.70;99.90
5494;DHT22;2769;49.864;8.656;2022-12-18T04:47:00;-4.60;99.90
5494;DHT22;2769;49.864;8.656;2022-12-18T04:49:29;-4.40;99.90
5494;DHT22;2769;49.864;8.656;2022-12-18T04:51:57;-4.50;99.90
5494;DHT22;2769;49.864;8.656;2022-12-18T04:54:25;-4.30;99.90
5494;DHT22;2769;49.864;8.656;2022-12-18T04:56:53;-4.10;99.90
5494;DHT22;2769;49.864;8.656;2022-12-18T04:59:21;-3.90;99.90
5494;DHT22;2769;49.864;8.656;2022-12-18T05:01:50;-4.20;99.90
5494;DHT22;2769;49.864;8.656;2022-12-18T05:04:21;-4.10;99.90
5494;DHT22;2769;49.864;8.656;2022-12-18T05:06:49;-4.10;99.90
5494;DHT22;2769;49.864;8.656;2022-12-18T05:09:17;-4.10;99.90
5494;DHT22;2769;49.864;8.656;2022-12-18T05:11:45;-4.20;99.90
5494;DHT22;2769;49.864;8.656;2022-12-18T05:14:14;-4.30;99.90
5494;DHT22;2769;49.864;8.656;2022-12-18T05:16:42;-4.20;99.90
5494;DHT22;2769;49.864;8.656;2022-12-18T05:19:11;-4.30;99.90
5494;DHT22;2769;49.864;8.656;2022-12-18T05:21:41;-4.10;99.90
5494;DHT22;2769;49.864;8.656;2022-12-18T05:24:10;-3.90;99.90
5494;DHT22;2769;49.864;8.656;2022-12-18T05:26:38;-4.10;99.90
5494;DHT22;2769;49.864;8.656;2022-12-18T05:29:07;-4.00;99.90
5494;DHT22;2769;49.864;8.656;2022-12-18T05:31:39;-4.10;99.90
5494;DHT22;2769;49.864;8.656;2022-12-18T05:34:09;-3.90;99.90
5494;DHT22;2769;49.864;8.656;2022-12-18T05:36:38;-3.70;99.90
5494;DHT22;2769;49.864;8.656;2022-12-18T05:39:09;-3.60;99.90
5494;DHT22;2769;49.864;8.656;2022-12-18T05:41:37;-3.50;99.90
5494;DHT22;2769;49.864;8.656;2022-12-18T05:44:05;-3.50;99.90
5494;DHT22;2769;49.864;8.656;2022-12-18T05:46:34;-3.80;99.90
5494;DHT22;2769;49.864;8.656;2022-12-18T05:49:03;-3.70;99.90
5494;DHT22;2769;49.864;8.656;2022-12-18T05:51:31;-3.30;99.90
5494;DHT22;2769;49.864;8.656;2022-12-18T05:53:59;-3.40;99.90
5494;DHT22;2769;49.864;8.656;2022-12-18T05:56:29;-3.30;99.90
5494;DHT22;2769;49.864;8.656;2022-12-18T05:58:57;-3.60;99.90
5494;DHT22;2769;49.864;8.656;2022-12-18T06:01:26;-3.60;99.90
5494;DHT22;2769;49.864;8.656;2022-12-18T06:03:57;-3.80;99.90
5494;DHT22;2769;49.864;8.656;2022-12-18T06:06:27;-3.60;99.90
5494;DHT22;2769;49.864;8.656;2022-12-18T06:08:56;-3.60;99.90
5494;DHT22;2769;49.864;8.656;2022-12-18T06:11:26;-3.70;99.90
5494;DHT22;2769;49.864;8.656;2022-12-18T06:13:56;-3.60;99.90
5494;DHT22;2769;49.864;8.656;2022-12-18T06:16:26;-3.80;99.90
5494;DHT22;2769;49.864;8.656;2022-12-18T06:18:56;-3.60;99.90
5494;DHT22;2769;49.864;8.656;2022-12-18T06:21:26;-3.60;99.90
5494;DHT22;2769;49.864;8.656;2022-12-18T06:23:54;-3.80;99.90
5494;DHT22;2769;49.864;8.656;2022-12-18T06:26:23;-4.00;99.90
5494;DHT22;2769;49.864;8.656;2022-12-18T06:28:55;-3.80;99.90
5494;DHT22;2769;49.864;8.656;2022-12-18T06:31:24;-3.90;99.90
5494;DHT22;2769;49.864;8.656;2022-12-18T06:33:53;-3.90;99.90
5494;DHT22;2769;49.864;8.656;2022-12-18T06:36:21;-3.70;99.90
5494;DHT22;2769;49.864;8.656;2022-12-18T06:38:49;-3.50;99.90
5494;DHT22;2769;49.864;8.656;2022-12-18T06:41:19;-3.50;99.90
5494;DHT22;2769;49.864;8.656;2022-12-18T06:43:47;-3.50;99.90
5494;DHT22;2769;49.864;8.656;2022-12-18T06:46:17;-3.60;99.90
5494;DHT22;2769;49.864;8.656;2022-12-18T06:48:47;-3.40;99.90
5494;DHT22;2769;49.864;8.656;2022-12-18T06:51:18;-3.80;99.90
5494;DHT22;2769;49.864;8.656;2022-12-18T06:53:46;-4.00;99.90
5494;DHT22;2769;49.864;8.656;2022-12-18T06:56:15;-3.70;99.90
5494;DHT22;2769;49.864;8.656;2022-12-18T06:58:43;-3.60;99.90
5494;DHT22;2769;49.864;8.656;2022-12-18T07:01:12;-3.50;99.90
5494;DHT22;2769;49.864;8.656;2022-12-18T07:03:42;-3.20;99.90
5494;DHT22;2769;49.864;8.656;2022-12-18T07:06:15;-3.40;99.90
5494;DHT22;2769;49.864;8.656;2022-12-18T07:08:45;-3.60;99.90
5494;DHT22;2769;49.864;8.656;2022-12-18T07:11:13;-3.30;99.90
5494;DHT22;2769;49.864;8.656;2022-12-18T07:13:42;-3.40;99.90
5494;DHT22;2769;49.864;8.656;2022-12-18T07:16:12;-3.70;99.90
5494;DHT22;2769;49.864;8.656;2022-12-18T07:18:49;-3.90;99.90
5494;DHT22;2769;49.864;8.656;2022-12-18T07:21:19;-4.10;99.90
5494;DHT22;2769;49.864;8.656;2022-12-18T07:23:48;-4.10;99.90
5494;DHT22;2769;49.864;8.656;2022-12-18T07:26:18;-4.30;99.90
5494;DHT22;2769;49.864;8.656;2022-12-18T07:28:47;-4.10;99.90
5494;DHT22;2769;49.864;8.656;2022-12-18T07:31:18;-4.00;99.90
5494;DHT22;2769;49.864;8.656;2022-12-18T07:33:49;-4.20;99.90
5494;DHT22;2769;49.864;8.656;2022-12-18T07:36:18;-4.20;99.90
5494;DHT22;2769;49.864;8.656;2022-12-18T07:38:47;-4.00;99.90
5494;DHT22;2769;49.864;8.656;2022-12-18T07:41:16;-4.00;99.90
5494;DHT22;2769;49.864;8.656;2022-12-18T07:43:45;-4.10;99.90
5494;DHT22;2769;49.864;8.656;2022-12-18T07:46:14;-4.10;99.90
5494;DHT22;2769;49.864;8.656;2022-12-18T07:48:44;-3.90;99.90
5494;DHT22;2769;49.864;8.656;2022-12-18T07:51:17;-4.10;99.90
5494;DHT22;2769;49.864;8.656;2022-12-18T07:53:46;-4.10;99.90
5494;DHT22;2769;49.864;8.656;2022-12-18T07:56:18;-4.20;99.90
5494;DHT22;2769;49.864;8.656;2022-12-18T07:58:56;-4.30;99.90
5494;DHT22;2769;49.864;8.656;2022-12-18T08:01:25;-4.40;99.90
5494;DHT22;2769;49.864;8.656;2022-12-18T08:03:53;-4.60;99.90
5494;DHT22;2769;49.864;8.656;2022-12-18T08:06:23;-4.50;99.90
5494;DHT22;2769;49.864;8.656;2022-12-18T08:08:52;-4.40;99.90
5494;DHT22;2769;49.864;8.656;2022-12-18T08:11:21;-4.20;99.90
5494;DHT22;2769;49.864;8.656;2022-12-18T08:13:50;-4.20;99.90
5494;DHT22;2769;49.864;8.656;2022-12-18T08:16:18;-4.50;99.90
5494;DHT22;2769;49.864;8.656;2022-12-18T08:18:47;-4.30;99.90
5494;DHT22;2769;49.864;8.656;2022-12-18T08:21:18;-4.40;99.90
5494;DHT22;2769;49.864;8.656;2022-12-18T08:23:49;-4.40;99.90
5494;DHT22;2769;49.864;8.656;2022-12-18T08:26:18;-4.20;99.90
5494;DHT22;2769;49.864;8.656;2022-12-18T08:28:47;-4.10;99.90
5494;DHT22;2769;49.864;8.656;2022-12-18T08:31:16;-4.10;99.90
5494;DHT22;2769;49.864;8.656;2022-12-18T08:33:45;-4.20;99.90
5494;DHT22;2769;49.864;8.656;2022-12-18T08:36:16;-4.20;99.90
5494;DHT22;2769;49.864;8.656;2022-12-18T08:38:44;-4.00;99.90
5494;DHT22;2769;49.864;8.656;2022-12-18T08:41:15;-4.00;99.90
5494;DHT22;2769;49.864;8.656;2022-12-18T08:43:44;-3.80;99.90
5494;DHT22;2769;49.864;8.656;2022-12-18T08:46:34;-3.80;99.90
5494;DHT22;2769;49.864;8.656;2022-12-18T08:49:03;-3.80;99.90
5494;DHT22;2769;49.864;8.656;2022-12-18T08:51:31;-3.50;99.90
5494;DHT22;2769;49.864;8.656;2022-12-18T08:54:00;-3.30;99.90
5494;DHT22;2769;49.864;8.656;2022-12-18T08:56:31;-3.40;99.90
5494;DHT22;2769;49.864;8.656;2022-12-18T08:58:59;-3.20;99.90
5494;DHT22;2769;49.864;8.656;2022-12-18T09:01:28;-3.10;99.90
5494;DHT22;2769;49.864;8.656;2022-12-18T09:03:57;-3.00;99.90
5494;DHT22;2769;49.864;8.656;2022-12-18T09:06:26;-2.90;99.90
5494;DHT22;2769;49.864;8.656;2022-12-18T09:08:57;-2.80;99.90
5494;DHT22;2769;49.864;8.656;2022-12-18T09:11:27;-2.80;99.90
5494;DHT22;2769;49.864;8.656;2022-12-18T09:13:59;-2.70;99.90
5494;DHT22;2769;49.864;8.656;2022-12-18T09:16:29;-2.50;99.90
5494;DHT22;2769;49.864;8.656;2022-12-18T09:18:59;-2.10;99.90
5494;DHT22;2769;49.864;8.656;2022-12-18T09:21:29;-2.30;99.90
5494;DHT22;2769;49.864;8.656;2022-12-18T09:24:03;-2.00;99.90
5494;DHT22;2769;49.864;8.656;2022-12-18T09:26:35;-2.00;99.90
5494;DHT22;2769;49.864;8.656;2022-12-18T09:29:07;-2.10;99.90
5494;DHT22;2769;49.864;8.656;2022-12-18T09:31:36;-2.00;99.90
5494;DHT22;2769;49.864;8.656;2022-12-18T09:34:05;-1.80;99.90
5494;DHT22;2769;49.864;8.656;2022-12-18T09:36:34;-1.50;99.90
5494;DHT22;2769;49.864;8.656;2022-12-18T09:39:02;-1.40;99.90
5494;DHT22;2769;49.864;8.656;2022-12-18T09:41:45;-1.20;99.90
5494;DHT22;2769;49.864;8.656;2022-12-18T09:44:23;-1.10;99.90
5494;DHT22;2769;49.864;8.656;2022-12-18T09:47:01;-1.00;99.90
5494;DHT22;2769;49.864;8.656;2022-12-18T09:49:41;-0.70;99.90
5494;DHT22;2769;49.864;8.656;2022-12-18T09:52:15;-0.40;99.90
5494;DHT22;2769;49.864;8.656;2022-12-18T09:54:50;-0.20;99.90
5494;DHT22;2769;49.864;8.656;2022-12-18T09:57:22;0.10;99.90
5494;DHT22;2769;49.864;8.656;2022-12-18T09:59:56;0.40;99.90
5494;DHT22;2769;49.864;8.656;2022-12-18T10:02:30;1.20;99.90
5494;DHT22;2769;49.864;8.656;2022-12-18T10:05:07;1.00;99.90
5494;DHT22;2769;49.864;8.656;2022-12-18T10:07:47;1.60;99.90
5494;DHT22;2769;49.864;8.656;2022-12-18T10:10:27;1.70;99.90
5494;DHT22;2769;49.864;8.656;2022-12-18T10:13:04;2.40;99.90
5494;DHT22;2769;49.864;8.656;2022-12-18T10:15:40;2.30;99.90
5494;DHT22;2769;49.864;8.656;2022-12-18T10:18:21;2.40;99.90
5494;DHT22;2769;49.864;8.656;2022-12-18T10:20:57;2.10;99.90
5494;DHT22;2769;49.864;8.656;2022-12-18T10:23:30;2.70;99.90
5494;DHT22;2769;49.864;8.656;2022-12-18T10:26:03;2.80;99.00
5494;DHT22;2769;49.864;8.656;2022-12-18T10:28:35;2.80;99.40
5494;DHT22;2769;49.864;8.656;2022-12-18T10:31:07;3.20;99.60
5494;DHT22;2769;49.864;8.656;2022-12-18T10:33:41;3.50;99.40
5494;DHT22;2769;49.864;8.656;2022-12-18T10:36:10;4.00;97.60
5494;DHT22;2769;49.864;8.656;2022-12-18T10:38:38;4.00;96.50
5494;DHT22;2769;49.864;8.656;2022-12-18T10:41:24;3.70;96.20
5494;DHT22;2769;49.864;8.656;2022-12-18T10:44:12;3.40;96.10
5494;DHT22;2769;49.864;8.656;2022-12-18T10:46:44;3.10;96.90
5494;DHT22;2769;49.864;8.656;2022-12-18T10:49:24;3.10;97.00
5494;DHT22;2769;49.864;8.656;2022-12-18T10:52:05;2.40;97.60
5494;DHT22;2769;49.864;8.656;2022-12-18T10:54:34;2.40;98.40
5494;DHT22;2769;49.864;8.656;2022-12-18T10:57:16;2.50;98.20
5494;DHT22;2769;49.864;8.656;2022-12-18T10:59:52;2.60;98.20
5494;DHT22;2769;49.864;8.656;2022-12-18T11:02:36;2.60;98.00
5494;DHT22;2769;49.864;8.656;2022-12-18T11:05:24;2.20;98.40
5494;DHT22;2769;49.864;8.656;2022-12-18T11:07:54;1.90;99.00
5494;DHT22;2769;49.864;8.656;2022-12-18T11:10:26;2.10;99.00
5494;DHT22;2769;49.864;8.656;2022-12-18T11:12:57;2.40;98.50
5494;DHT22;2769;49.864;8.656;2022-12-18T11:15:37;2.50;98.30
5494;DHT22;2769;49.864;8.656;2022-12-18T11:18:17;2.80;98.20
5494;DHT22;2769;49.864;8.656;2022-12-18T11:20:51;3.10;98.40
5494;DHT22;2769;49.864;8.656;2022-12-18T11:23:26;3.10;97.50
5494;DHT22;2769;49.864;8.656;2022-12-18T11:25:59;2.80;98.20
5494;DHT22;2769;49.864;8.656;2022-12-18T11:28:35;2.90;97.20
5494;DHT22;2769;49.864;8.656;2022-12-18T11:31:17;3.00;96.70
5494;DHT22;2769;49.864;8.656;2022-12-18T11:33:52;3.10;97.20
5494;DHT22;2769;49.864;8.656;2022-12-18T11:36:44;2.80;97.40
5494;DHT22;2769;49.864;8.656;2022-12-18T11:39:17;3.00;97.50
5494;DHT22;2769;49.864;8.656;2022-12-18T11:41:53;2.70;97.50
5494;DHT22;2769;49.864;8.656;2022-12-18T11:44:43;2.90;97.90
5494;DHT22;2769;49.864;8.656;2022-12-18T11:47:25;2.80;97.80
5494;DHT22;2769;49.864;8.656;2022-12-18T11:50:01;2.70;97.80
5494;DHT22;2769;49.864;8.656;2022-12-18T11:52:34;2.90;97.90
5494;DHT22;2769;49.864;8.656;2022-12-18T11:55:11;2.70;97.80
5494;DHT22;2769;49.864;8.656;2022-12-18T11:57:45;2.60;97.80
5494;DHT22;2769;49.864;8.656;2022-12-18T12:00:27;2.40;98.40
5494;DHT22;2769;49.864;8.656;2022-12-18T12:03:21;2.10;99.10
5494;DHT22;2769;49.864;8.656;2022-12-18T12:06:03;2.10;99.00
5494;DHT22;2769;49.864;8.656;2022-12-18T12:08:47;2.20;99.30
5494;DHT22;2769;49.864;8.656;2022-12-18T12:11:25;2.10;99.40
5494;DHT22;2769;49.864;8.656;2022-12-18T12:16:52;2.50;99.20
5494;DHT22;2769;49.864;8.656;2022-12-18T12:19:33;2.50;99.00
5494;DHT22;2769;49.864;8.656;2022-12-18T12:22:10;2.30;99.10
5494;DHT22;2769;49.864;8.656;2022-12-18T12:24:51;2.10;99.20
5494;DHT22;2769;49.864;8.656;2022-12-18T12:27:29;2.10;99.80
5494;DHT22;2769;49.864;8.656;2022-12-18T12:30:04;2.20;99.90
5494;DHT22;2769;49.864;8.656;2022-12-18T12:32:47;1.90;99.90
5494;DHT22;2769;49.864;8.656;2022-12-18T12:35:27;2.10;99.90
5494;DHT22;2769;49.864;8.656;2022-12-18T12:38:06;2.10;99.90
5494;DHT22;2769;49.864;8.656;2022-12-18T12:40:39;1.80;99.90
5494;DHT22;2769;49.864;8.656;2022-12-18T12:43:29;2.00;99.90
5494;DHT22;2769;49.864;8.656;2022-12-18T12:46:00;1.80;99.90
5494;DHT22;2769;49.864;8.656;2022-12-18T12:48:38;1.80;99.90
5494;DHT22;2769;49.864;8.656;2022-12-18T12:51:15;1.50;99.90
5494;DHT22;2769;49.864;8.656;2022-12-18T12:53:46;1.50;99.90
5494;DHT22;2769;49.864;8.656;2022-12-18T12:56:16;1.70;99.90
5494;DHT22;2769;49.864;8.656;2022-12-18T12:58:55;1.60;99.90
5494;DHT22;2769;49.864;8.656;2022-12-18T13:01:34;1.30;99.90
5494;DHT22;2769;49.864;8.656;2022-12-18T13:04:15;1.20;99.90
5494;DHT22;2769;49.864;8.656;2022-12-18T13:06:53;1.20;99.90
5494;DHT22;2769;49.864;8.656;2022-12-18T13:09:30;1.40;99.90
5494;DHT22;2769;49.864;8.656;2022-12-18T13:12:03;1.40;99.90
5494;DHT22;2769;49.864;8.656;2022-12-18T13:14:50;1.60;99.90
5494;DHT22;2769;49.864;8.656;2022-12-18T13:17:29;2.00;99.90
5494;DHT22;2769;49.864;8.656;2022-12-18T13:20:11;1.70;99.90
5494;DHT22;2769;49.864;8.656;2022-12-18T13:22:44;1.80;99.90
5494;DHT22;2769;49.864;8.656;2022-12-18T13:25:35;1.90;99.90
5494;DHT22;2769;49.864;8.656;2022-12-18T13:28:07;1.80;99.90
5494;DHT22;2769;49.864;8.656;2022-12-18T13:30:54;1.60;99.90
5494;DHT22;2769;49.864;8.656;2022-12-18T13:33:47;1.60;99.90
5494;DHT22;2769;49.864;8.656;2022-12-18T13:36:36;1.60;99.90
5494;DHT22;2769;49.864;8.656;2022-12-18T13:39:22;1.50;99.90
5494;DHT22;2769;49.864;8.656;2022-12-18T13:45:49;1.50;99.90
5494;DHT22;2769;49.864;8.656;2022-12-18T13:48:28;1.30;99.90
5494;DHT22;2769;49.864;8.656;2022-12-18T13:51:00;1.20;99.90
5494;DHT22;2769;49.864;8.656;2022-12-18T13:53:34;1.50;99.90
5494;DHT22;2769;49.864;8.656;2022-12-18T13:56:05;1.20;99.90
5494;DHT22;2769;49.864;8.656;2022-12-18T13:58:34;1.40;99.90
5494;DHT22;2769;49.864;8.656;2022-12-18T14:01:04;1.30;99.90
5494;DHT22;2769;49.864;8.656;2022-12-18T14:03:32;1.20;99.90
5494;DHT22;2769;49.864;8.656;2022-12-18T14:06:06;1.30;99.90
5494;DHT22;2769;49.864;8.656;2022-12-18T14:08:38;1.40;99.90
5494;DHT22;2769;49.864;8.656;2022-12-18T14:11:18;1.50;99.90
5494;DHT22;2769;49.864;8.656;2022-12-18T14:13:49;1.10;99.90
5494;DHT22;2769;49.864;8.656;2022-12-18T14:16:18;1.00;99.90
5494;DHT22;2769;49.864;8.656;2022-12-18T14:18:50;1.20;99.90
5494;DHT22;2769;49.864;8.656;2022-12-18T14:21:26;1.40;99.90
5494;DHT22;2769;49.864;8.656;2022-12-18T14:24:06;0.80;99.90
5494;DHT22;2769;49.864;8.656;2022-12-18T14:26:40;1.00;99.90
5494;DHT22;2769;49.864;8.656;2022-12-18T14:29:21;1.00;99.90
5494;DHT22;2769;49.864;8.656;2022-12-18T14:32:11;1.10;99.90
5494;DHT22;2769;49.864;8.656;2022-12-18T14:34:45;1.00;99.90
5494;DHT22;2769;49.864;8.656;2022-12-18T14:37:15;1.00;99.90
5494;DHT22;2769;49.864;8.656;2022-12-18T14:39:57;0.90;99.90
5494;DHT22;2769;49.864;8.656;2022-12-18T14:42:33;1.10;99.90
5494;DHT22;2769;49.864;8.656;2022-12-18T14:45:33;0.90;99.90
5494;DHT22;2769;49.864;8.656;2022-12-18T14:48:15;1.00;99.90
5494;DHT22;2769;49.864;8.656;2022-12-18T14:51:01;0.80;99.90
5494;DHT22;2769;49.864;8.656;2022-12-18T14:53:35;1.00;99.90
5494;DHT22;2769;49.864;8.656;2022-12-18T14:56:14;1.00;99.90
5494;DHT22;2769;49.864;8.656;2022-12-18T14:58:50;0.80;99.90
5494;DHT22;2769;49.864;8.656;2022-12-18T15:01:22;0.60;99.90
5494;DHT22;2769;49.864;8.656;2022-12-18T15:03:54;0.70;99.90
5494;DHT22;2769;49.864;8.656;2022-12-18T15:06:29;0.70;99.90
5494;DHT22;2769;49.864;8.656;2022-12-18T15:09:00;0.60;99.90
5494;DHT22;2769;49.864;8.656;2022-12-18T15:11:34;0.70;99.90
5494;DHT22;2769;49.864;8.656;2022-12-18T15:14:21;0.60;99.90
5494;DHT22;2769;49.864;8.656;2022-12-18T15:16:53;0.90;99.90
5494;DHT22;2769;49.864;8.656;2022-12-18T15:19:32;0.70;99.90
5494;DHT22;2769;49.864;8.656;2022-12-18T15:22:01;0.80;99.90
5494;DHT22;2769;49.864;8.656;2022-12-18T15:24:32;0.80;99.90
5494;DHT22;2769;49.864;8.656;2022-12-18T15:27:01;0.80;99.90
5494;DHT22;2769;49.864;8.656;2022-12-18T15:29:29;0.70;99.90
5494;DHT22;2769;49.864;8.656;2022-12-18T15:31:59;0.90;99.90
5494;DHT22;2769;49.864;8.656;2022-12-18T15:34:31;0.80;99.90
5494;DHT22;2769;49.864;8.656;2022-12-18T15:37:00;0.50;99.90
5494;DHT22;2769;49.864;8.656;2022-12-18T15:39:29;0.60;99.90
5494;DHT22;2769;49.864;8.656;2022-12-18T15:41:57;0.90;99.90
5494;DHT22;2769;49.864;8.656;2022-12-18T15:44:43;0.70;99.90
5494;DHT22;2769;49.864;8.656;2022-12-18T15:47:13;0.50;99.90
5494;DHT22;2769;49.864;8.656;2022-12-18T15:49:42;0.70;99.90
5494;DHT22;2769;49.864;8.656;2022-12-18T15:52:12;0.60;99.90
5494;DHT22;2769;49.864;8.656;2022-12-18T15:54:53;0.70;99.90
5494;DHT22;2769;49.864;8.656;2022-12-18T15:57:38;0.80;99.90
5494;DHT22;2769;49.864;8.656;2022-12-18T16:00:11;0.60;99.90
5494;DHT22;2769;49.864;8.656;2022-12-18T16:02:40;0.70;99.90
5494;DHT22;2769;49.864;8.656;2022-12-18T16:05:14;0.90;99.90
5494;DHT22;2769;49.864;8.656;2022-12-18T16:07:43;0.90;99.90
5494;DHT22;2769;49.864;8.656;2022-12-18T16:10:12;0.90;99.90
5494;DHT22;2769;49.864;8.656;2022-12-18T16:12:41;0.80;99.90
5494;DHT22;2769;49.864;8.656;2022-12-18T16:15:12;0.80;99.90
5494;DHT22;2769;49.864;8.656;2022-12-18T16:17:50;0.90;99.90
5494;DHT22;2769;49.864;8.656;2022-12-18T16:20:21;1.00;99.90
5494;DHT22;2769;49.864;8.656;2022-12-18T16:22:49;0.80;99.90
5494;DHT22;2769;49.864;8.656;2022-12-18T16:25:21;0.80;99.90
5494;DHT22;2769;49.864;8.656;2022-12-18T16:27:50;0.70;99.90
5494;DHT22;2769;49.864;8.656;2022-12-18T16:30:20;0.70;99.90
5494;DHT22;2769;49.864;8.656;2022-12-18T16:32:50;1.00;99.90
5494;DHT22;2769;49.864;8.656;2022-12-18T16:35:20;1.00;99.90
5494;DHT22;2769;49.864;8.656;2022-12-18T16:37:48;1.00;99.90
5494;DHT22;2769;49.864;8.656;2022-12-18T16:40:17;1.10;99.90
5494;DHT22;2769;49.864;8.656;2022-12-18T16:42:46;0.90;99.90
5494;DHT22;2769;49.864;8.656;2022-12-18T16:45:16;1.10;99.90
5494;DHT22;2769;49.864;8.656;2022-12-18T16:47:45;0.90;99.90
5494;DHT22;2769;49.864;8.656;2022-12-18T16:50:13;0.90;99.90